Time;durP1;ratioP1;P1;durP2;ratioP2;P2;SDS_P1;SDS_P2;PMS_P1;PMS_P2;Temp;Humidity;BMP_temperature;BMP_pressure;BME280_temperature;BME280_humidity;BME280_pressure;Samples;Min_cycle;Max_cycle;Signal;HPM_P1;HPM_P2
2022/07/06 00:00:17;;;;;;;12.13;2.60;;;;;;;18.99;55.34;101675.59;5028186;28;20053;-71
2022/07/06 00:02:43;;;;;;;3.25;1.40;;;;;;;19.15;54.93;101674.38;5026034;28;20053;-71
2022/07/06 00:05:11;;;;;;;7.50;1.55;;;;;;;19.15;55.54;101681.50;5027549;28;20049;-71
2022/07/06 00:07:37;;;;;;;3.72;1.63;;;;;;;19.16;54.74;101678.72;5028609;28;20050;-71
2022/07/06 00:10:04;;;;;;;3.88;1.80;;;;;;;19.25;54.30;101670.06;5026208;28;20417;-70
2022/07/06 00:12:31;;;;;;;4.50;1.48;;;;;;;19.39;53.72;101671.72;5026334;28;20077;-70
2022/07/06 00:14:57;;;;;;;5.10;1.90;;;;;;;19.23;54.38;101674.66;5026756;28;20493;-70
2022/07/06 00:17:24;;;;;;;3.45;1.88;;;;;;;19.29;54.71;101689.34;5025888;28;20469;-70
2022/07/06 00:19:50;;;;;;;7.57;1.30;;;;;;;19.35;54.64;101686.22;5026383;28;20091;-70
2022/07/06 00:22:18;;;;;;;5.93;1.48;;;;;;;19.38;54.60;101693.97;5027035;28;20095;-70
2022/07/06 00:24:44;;;;;;;4.80;1.48;;;;;;;19.44;53.75;101696.19;5026075;28;20049;-70
2022/07/06 00:27:10;;;;;;;3.60;1.92;;;;;;;19.74;52.58;101701.06;5026322;28;20065;-70
2022/07/06 00:29:37;;;;;;;7.55;1.60;;;;;;;19.73;53.07;101699.38;5008067;28;20050;-70
2022/07/06 00:32:04;;;;;;;5.78;1.65;;;;;;;19.43;54.05;101694.53;5014572;28;20041;-70
2022/07/06 00:34:30;;;;;;;3.97;1.40;;;;;;;19.24;54.20;101689.66;5027769;28;20555;-70
2022/07/06 00:36:56;;;;;;;6.05;1.67;;;;;;;19.23;54.28;101687.09;5015888;28;20046;-72
2022/07/06 00:39:28;;;;;;;5.65;1.25;;;;;;;18.94;55.55;101694.53;5011134;28;20038;-71
2022/07/06 00:41:55;;;;;;;;;;;;;;;19.06;55.38;101692.81;5027895;28;20099;-71
2022/07/06 00:44:21;;;;;;;4.60;1.55;;;;;;;18.85;56.16;101681.88;5028930;28;20021;-71
2022/07/06 00:46:47;;;;;;;4.03;1.45;;;;;;;18.80;55.91;101687.53;5025130;28;20050;-71
2022/07/06 00:51:54;;;;;;;4.43;1.45;;;;;;;18.96;55.61;101684.63;5016567;28;20045;-71
2022/07/06 00:54:21;;;;;;;4.15;1.60;;;;;;;18.93;55.99;101685.69;5022651;28;20128;-70
2022/07/06 00:56:49;;;;;;;6.95;2.00;;;;;;;18.83;56.34;101683.81;5012062;28;20502;-70
2022/07/06 00:59:15;;;;;;;3.55;1.50;;;;;;;18.99;55.76;101686.22;5016293;28;20069;-70
2022/07/06 01:01:41;;;;;;;3.70;1.50;;;;;;;18.77;56.53;101681.59;5024715;28;20069;-70
2022/07/06 01:04:08;;;;;;;4.18;1.67;;;;;;;18.78;56.61;101685.94;5023390;28;20107;-70
2022/07/06 01:06:34;;;;;;;4.25;1.65;;;;;;;18.77;56.34;101687.75;5025247;28;20100;-70
2022/07/06 01:09:01;;;;;;;5.28;1.60;;;;;;;18.56;57.13;101680.44;5025786;28;20069;-70
2022/07/06 01:11:27;;;;;;;3.45;1.40;;;;;;;18.73;56.80;101682.78;5026276;28;20115;-70
2022/07/06 01:13:55;;;;;;;4.82;1.88;;;;;;;18.87;55.96;101680.84;5024631;28;20103;-70
2022/07/06 01:16:22;;;;;;;2.53;1.30;;;;;;;18.65;56.42;101680.66;5028959;28;20088;-70
2022/07/06 01:18:48;;;;;;;4.18;1.42;;;;;;;18.75;55.79;101684.34;5025574;28;20111;-70
2022/07/06 01:21:16;;;;;;;3.80;1.40;;;;;;;18.66;55.87;101679.69;5024507;28;20061;-70
2022/07/06 01:23:44;;;;;;;2.75;1.55;;;;;;;18.74;55.74;101685.31;5027272;28;20060;-70
2022/07/06 01:26:12;;;;;;;2.45;1.30;;;;;;;18.90;55.91;101685.94;5025519;28;20091;-70
2022/07/06 01:28:39;;;;;;;4.95;1.85;;;;;;;18.88;55.63;101673.72;5020382;28;20049;-70
2022/07/06 01:31:06;;;;;;;4.18;1.40;;;;;;;18.83;56.15;101678.50;5007102;28;20104;-69
2022/07/06 01:33:32;;;;;;;5.07;1.60;;;;;;;18.89;55.17;101675.41;5020639;28;20057;-69
2022/07/06 01:35:59;;;;;;;4.47;1.50;;;;;;;18.66;55.78;101673.53;5026950;28;20079;-71
2022/07/06 01:38:26;;;;;;;4.95;1.55;;;;;;;18.54;55.80;101677.06;5024209;28;20039;-71
2022/07/06 01:40:53;;;;;;;3.17;1.30;;;;;;;18.57;55.78;101666.22;5024386;28;20052;-71
2022/07/06 01:43:19;;;;;;;3.35;1.30;;;;;;;18.74;55.49;101671.16;5024494;28;20163;-70
2022/07/06 01:45:45;;;;;;;5.40;2.03;;;;;;;18.65;55.64;101669.19;5025218;28;20041;-70
2022/07/06 01:48:12;;;;;;;5.10;2.17;;;;;;;18.94;54.51;101667.94;5024395;28;20134;-71
2022/07/06 01:50:38;;;;;;;5.47;1.40;;;;;;;18.82;54.91;101668.81;5023238;28;20568;-71
2022/07/06 01:53:04;;;;;;;5.72;1.52;;;;;;;18.76;55.66;101669.28;5020792;28;20066;-71
2022/07/06 01:55:32;;;;;;;2.60;1.38;;;;;;;19.00;54.70;101669.31;5017326;28;20080;-70
2022/07/06 01:57:59;;;;;;;2.97;1.58;;;;;;;19.07;54.57;101667.94;5017377;28;20606;-70
2022/07/06 02:00:25;;;;;;;5.25;1.95;;;;;;;19.01;55.30;101668.34;5025754;28;20062;-70
2022/07/06 02:02:51;;;;;;;5.57;1.52;;;;;;;18.59;55.96;101659.00;5022498;28;20130;-70
2022/07/06 02:05:17;;;;;;;4.22;1.67;;;;;;;18.53;56.26;101670.88;5025628;28;20068;-70
2022/07/06 02:07:44;;;;;;;2.90;1.60;;;;;;;18.79;54.86;101666.38;5025613;28;20073;-70
2022/07/06 02:10:10;;;;;;;2.78;1.70;;;;;;;18.70;54.59;101659.09;5025488;28;20107;-70
2022/07/06 02:12:38;;;;;;;3.15;1.55;;;;;;;18.54;54.67;101671.75;5023613;28;20456;-70
2022/07/06 02:15:05;;;;;;;4.20;1.55;;;;;;;18.43;55.09;101673.31;5026118;28;20056;-70
2022/07/06 02:17:31;;;;;;;9.82;1.77;;;;;;;18.58;54.60;101673.22;5025100;28;20084;-70
2022/07/06 02:19:57;;;;;;;2.67;1.73;;;;;;;18.30;55.13;101668.94;5023153;28;20045;-70
2022/07/06 02:22:24;;;;;;;3.58;1.50;;;;;;;17.79;56.52;101673.34;5030683;28;20045;-70
2022/07/06 02:24:50;;;;;;;4.20;1.55;;;;;;;17.61;58.36;101674.56;5021183;28;20093;-69
2022/07/06 02:27:16;;;;;;;4.28;1.45;;;;;;;17.79;56.89;101682.16;5013952;28;20087;-70
2022/07/06 02:29:44;;;;;;;5.60;1.60;;;;;;;17.68;57.12;101687.31;5023910;28;20123;-70
2022/07/06 02:32:10;;;;;;;4.05;1.50;;;;;;;17.49;57.82;101690.31;5023625;28;20773;-70
2022/07/06 02:34:37;;;;;;;6.95;1.38;;;;;;;17.19;58.63;101683.47;5023671;28;20099;-70
2022/07/06 02:37:03;;;;;;;5.53;1.38;;;;;;;17.29;58.02;101695.22;5025928;28;20095;-70
2022/07/06 02:39:30;;;;;;;5.15;1.27;;;;;;;17.29;58.51;101688.13;5028886;28;20053;-70
2022/07/06 02:41:56;;;;;;;5.10;1.63;;;;;;;17.27;58.45;101686.50;5027998;28;20072;-70
2022/07/06 02:44:22;;;;;;;5.18;1.52;;;;;;;17.15;59.05;101684.63;5027566;28;20041;-70
2022/07/06 02:46:50;;;;;;;5.10;1.60;;;;;;;17.33;58.24;101681.63;5030648;28;20045;-70
2022/07/06 02:49:16;;;;;;;2.30;1.13;;;;;;;17.18;58.55;101682.66;5028523;28;20048;-70
2022/07/06 02:51:43;;;;;;;5.53;1.30;;;;;;;17.26;58.46;101679.47;5025887;28;20050;-70
2022/07/06 02:54:09;;;;;;;2.97;1.15;;;;;;;17.20;58.90;101685.19;5018578;28;20077;-70
2022/07/06 02:56:35;;;;;;;4.30;1.50;;;;;;;16.98;58.85;101685.72;5020181;28;20387;-70
2022/07/06 02:59:02;;;;;;;3.15;1.48;;;;;;;17.00;58.87;101689.97;5026718;28;20490;-70
2022/07/06 03:01:28;;;;;;;4.60;1.50;;;;;;;16.95;59.12;101688.56;5021366;28;20096;-70
2022/07/06 03:03:56;;;;;;;6.78;1.60;;;;;;;17.12;59.07;101695.44;5024689;28;20073;-69
2022/07/06 03:06:22;;;;;;;3.95;1.70;;;;;;;17.10;59.30;101694.69;5027742;28;20045;-69
2022/07/06 03:08:48;;;;;;;6.65;2.08;;;;;;;16.94;59.87;101693.00;5012272;28;20519;-70
2022/07/06 03:11:15;;;;;;;6.03;1.33;;;;;;;16.90;60.14;101693.28;5036047;28;20075;-70
2022/07/06 03:13:41;;;;;;;3.90;1.80;;;;;;;17.07;59.44;101703.69;5013687;28;20072;-70
2022/07/06 03:16:08;;;;;;;3.05;1.40;;;;;;;17.10;59.17;101705.28;5015054;28;20045;-70
2022/07/06 03:18:34;;;;;;;5.85;1.50;;;;;;;17.27;58.49;101708.56;5028998;28;20041;-70
2022/07/06 03:21:03;;;;;;;5.43;2.03;;;;;;;16.92;59.75;101707.31;5021949;28;20046;-69
2022/07/06 03:23:30;;;;;;;4.47;1.67;;;;;;;17.41;58.44;101705.00;5019380;28;20091;-69
2022/07/06 03:25:57;;;;;;;5.47;1.75;;;;;;;17.42;58.30;101704.91;5010093;28;20103;-70
2022/07/06 03:28:23;;;;;;;5.57;2.22;;;;;;;17.12;59.69;101712.19;5027777;28;20501;-70
2022/07/06 03:30:49;;;;;;;4.15;1.50;;;;;;;17.23;59.05;101701.75;5026892;28;20061;-70
2022/07/06 03:33:16;;;;;;;5.88;1.50;;;;;;;17.17;59.46;101707.44;5029406;28;20092;-70
2022/07/06 03:35:42;;;;;;;7.70;1.60;;;;;;;16.85;60.60;101709.47;5028117;28;20046;-70
2022/07/06 03:38:10;;;;;;;8.55;1.67;;;;;;;16.81;60.71;101713.28;5029840;28;20041;-70
2022/07/06 03:40:36;;;;;;;6.88;1.60;;;;;;;17.16;59.70;101703.09;5025727;28;20111;-70
2022/07/06 03:43:03;;;;;;;7.20;2.13;;;;;;;16.86;60.59;101712.97;5016942;28;20084;-70
2022/07/06 03:45:30;;;;;;;7.90;2.00;;;;;;;16.97;60.81;101711.34;5018832;28;20074;-70
2022/07/06 03:47:57;;;;;;;4.07;1.67;;;;;;;16.97;60.39;101707.84;5027335;28;20053;-70
2022/07/06 03:50:23;;;;;;;5.55;1.30;;;;;;;16.88;60.73;101706.66;5009949;28;20045;-70
2022/07/06 03:52:49;;;;;;;6.13;2.22;;;;;;;17.21;59.61;101698.34;5008459;28;20042;-70
2022/07/06 03:55:17;;;;;;;8.82;2.17;;;;;;;17.04;59.78;101710.00;5018984;28;20061;-70
2022/07/06 03:57:43;;;;;;;3.65;1.45;;;;;;;16.83;61.00;101707.88;5025649;28;20065;-70
2022/07/06 04:00:11;;;;;;;10.05;1.83;;;;;;;17.02;60.19;101703.97;5025833;28;20053;-69
2022/07/06 04:02:37;;;;;;;6.20;1.42;;;;;;;16.85;61.05;101708.63;5026078;28;20049;-70
2022/07/06 04:05:04;;;;;;;16.85;2.10;;;;;;;16.91;60.91;101710.91;5024567;28;20077;-70
2022/07/06 04:07:30;;;;;;;7.43;1.85;;;;;;;17.04;59.73;101706.50;5020526;28;20490;-70
2022/07/06 04:09:56;;;;;;;6.55;1.73;;;;;;;16.98;60.48;101712.22;5022541;28;20042;-69
2022/07/06 04:12:24;;;;;;;6.88;1.55;;;;;;;17.12;60.05;101714.84;5020956;28;20477;-69
2022/07/06 04:14:50;;;;;;;9.77;1.42;;;;;;;16.94;60.47;101714.19;5023084;28;20509;-70
2022/07/06 04:20:00;;;;;;;9.10;2.08;;;;;;;17.07;60.60;101732.84;5026713;28;20056;-70
2022/07/06 04:22:27;;;;;;;8.18;1.80;;;;;;;16.96;60.82;101720.25;5022794;28;20631;-70
2022/07/06 04:24:53;;;;;;;9.95;1.50;;;;;;;17.30;59.46;101723.41;5029107;28;20033;-70
2022/07/06 04:27:20;;;;;;;5.40;1.70;;;;;;;17.46;58.75;101710.88;5025614;28;20041;-70
2022/07/06 04:29:48;;;;;;;6.72;1.58;;;;;;;17.52;58.82;101727.22;5022402;28;20049;-69
2022/07/06 04:32:14;;;;;;;6.13;1.40;;;;;;;17.90;57.46;101719.44;5017705;28;20045;-69
2022/07/06 04:34:40;;;;;;;5.97;1.70;;;;;;;17.50;58.59;101717.69;5016687;28;20080;-70
2022/07/06 04:37:06;;;;;;;5.07;1.50;;;;;;;17.77;58.16;101723.88;5025935;28;20050;-70
2022/07/06 04:39:33;;;;;;;7.15;1.40;;;;;;;17.86;57.78;101728.56;5027209;28;20143;-69
2022/07/06 04:41:59;;;;;;;6.25;1.40;;;;;;;18.00;57.16;101720.50;5026827;28;20537;-70
2022/07/06 04:44:25;;;;;;;10.05;1.80;;;;;;;18.24;56.85;101730.44;5025274;28;20065;-70
2022/07/06 04:46:53;;;;;;;7.60;1.55;;;;;;;17.91;57.93;101731.75;5027785;28;20046;-70
2022/07/06 04:49:19;;;;;;;5.40;1.42;;;;;;;17.75;57.89;101728.41;5025779;28;20061;-70
2022/07/06 04:51:46;;;;;;;6.43;1.50;;;;;;;18.02;57.78;101732.84;5027099;28;20041;-70
2022/07/06 04:54:12;;;;;;;4.65;1.30;;;;;;;18.07;58.48;101725.44;5015530;28;20135;-70
2022/07/06 04:56:38;;;;;;;5.28;1.58;;;;;;;17.94;58.20;101728.91;5028895;28;20617;-70
2022/07/06 04:59:05;;;;;;;6.32;1.63;;;;;;;18.37;57.31;101728.63;5023382;28;20501;-70
2022/07/06 05:01:31;;;;;;;6.18;1.27;;;;;;;18.25;57.67;101722.38;5026737;28;20049;-70
2022/07/06 05:03:59;;;;;;;9.35;1.60;;;;;;;17.95;58.25;101732.41;5027822;28;20073;-69
2022/07/06 05:06:25;;;;;;;4.32;1.35;;;;;;;18.12;57.98;101732.13;5018055;28;20434;-69
2022/07/06 05:08:51;;;;;;;6.85;1.60;;;;;;;18.07;58.55;101731.56;5006889;28;20076;-69
2022/07/06 05:11:18;;;;;;;6.55;1.30;;;;;;;18.00;58.91;101730.28;5011931;28;20049;-69
2022/07/06 05:13:44;;;;;;;4.03;1.50;;;;;;;17.98;59.03;101743.66;5023044;28;20092;-69
2022/07/06 05:16:10;;;;;;;7.35;2.67;;;;;;;18.13;58.42;101732.97;5025079;28;20095;-69
2022/07/06 05:18:37;;;;;;;7.15;1.65;;;;;;;18.21;58.41;101728.84;5024258;28;20045;-69
2022/07/06 05:21:05;;;;;;;9.68;1.70;;;;;;;18.26;58.00;101732.03;5026109;28;20485;-69
2022/07/06 05:23:31;;;;;;;5.60;1.20;;;;;;;18.47;57.82;101730.56;5027366;28;20075;-69
2022/07/06 05:25:57;;;;;;;7.72;2.10;;;;;;;18.11;58.10;101737.53;5026078;28;20091;-69
2022/07/06 05:28:24;;;;;;;5.22;1.40;;;;;;;18.05;58.60;101737.94;5025492;28;20045;-69
2022/07/06 05:30:50;;;;;;;8.30;1.65;;;;;;;17.92;59.22;101737.91;5025098;28;20049;-69
2022/07/06 05:33:17;;;;;;;3.00;1.20;;;;;;;18.04;58.72;101750.34;5023812;28;20358;-69
2022/07/06 05:35:43;;;;;;;15.20;3.53;;;;;;;18.10;59.21;101738.50;5022252;28;20053;-69
2022/07/06 05:38:11;;;;;;;9.10;1.80;;;;;;;18.41;57.87;101746.06;5022313;28;20092;-69
2022/07/06 05:40:38;;;;;;;6.18;1.70;;;;;;;18.42;57.83;101748.63;5027554;28;20061;-69
2022/07/06 05:43:04;;;;;;;6.82;1.70;;;;;;;18.62;57.10;101731.34;5026755;28;20073;-69
2022/07/06 05:45:31;;;;;;;5.22;1.45;;;;;;;18.64;57.42;101741.84;5025542;28;20045;-70
2022/07/06 05:50:41;;;;;;;6.45;1.75;;;;;;;18.55;57.89;101732.69;5025436;28;20441;-70
2022/07/06 05:53:08;;;;;;;8.57;1.95;;;;;;;18.77;57.23;101740.88;5025876;28;20064;-70
2022/07/06 05:55:35;;;;;;;5.00;1.42;;;;;;;18.90;56.21;101738.22;5026641;28;20473;-70
2022/07/06 05:58:02;;;;;;;4.70;1.35;;;;;;;18.85;56.42;101740.34;5025153;28;20049;-71
2022/07/06 06:00:29;;;;;;;3.67;1.30;;;;;;;19.18;56.17;101737.13;5026082;28;20115;-71
2022/07/06 06:02:55;;;;;;;2.45;1.50;;;;;;;19.17;55.89;101748.72;5025951;28;20057;-71
2022/07/06 06:05:22;;;;;;;5.22;1.30;;;;;;;19.52;54.97;101746.19;5025576;28;20472;-71
2022/07/06 06:07:50;;;;;;;5.43;1.27;;;;;;;19.62;53.82;101741.91;5007640;28;20049;-70
2022/07/06 06:10:18;;;;;;;5.32;1.48;;;;;;;19.62;53.65;101744.56;5007732;28;20061;-70
2022/07/06 06:12:46;;;;;;;6.88;1.67;;;;;;;19.89;53.44;101755.81;5020501;28;20576;-70
2022/07/06 06:15:13;;;;;;;7.13;2.33;;;;;;;20.55;50.80;101749.84;5028302;28;20046;-70
2022/07/06 06:17:40;;;;;;;5.75;1.15;;;;;;;20.65;50.83;101742.00;5028662;28;20104;-70
2022/07/06 06:20:08;;;;;;;10.40;1.30;;;;;;;21.28;49.67;101741.41;5025853;28;20054;-72
2022/07/06 06:22:45;;;;;;;7.28;1.50;;;;;;;21.45;50.82;101746.22;5028877;28;20103;-72
2022/07/06 06:25:11;;;;;;;5.40;1.38;;;;;;;21.71;50.13;101752.09;5029411;28;20049;-72
2022/07/06 06:27:37;;;;;;;5.60;1.23;;;;;;;21.90;47.48;101751.44;5029307;28;20773;-72
2022/07/06 06:30:06;;;;;;;3.65;1.17;;;;;;;22.14;46.86;101755.59;5026704;28;20093;-72
2022/07/06 06:32:33;;;;;;;4.70;1.48;;;;;;;22.19;47.63;101758.72;5029275;28;20463;-72
2022/07/06 06:34:59;;;;;;;5.63;1.23;;;;;;;21.84;47.37;101758.09;5029594;28;20560;-73
2022/07/06 06:37:25;;;;;;;5.55;1.27;;;;;;;21.71;47.66;101754.78;5022215;28;20095;-73
2022/07/06 06:39:52;;;;;;;4.05;1.85;;;;;;;21.67;47.45;101756.00;5027730;28;20049;-74
2022/07/06 06:42:18;;;;;;;3.22;1.55;;;;;;;21.95;47.57;101750.09;5028443;28;20103;-74
2022/07/06 06:44:44;;;;;;;5.03;1.35;;;;;;;22.20;47.08;101744.41;5027258;28;20073;-74
2022/07/06 06:47:12;;;;;;;6.70;1.38;;;;;;;22.53;46.67;101739.81;5028574;28;20417;-74
2022/07/06 06:49:38;;;;;;;5.60;1.13;;;;;;;22.81;45.84;101733.78;5027713;28;20029;-74
2022/07/06 06:52:05;;;;;;;3.45;1.30;;;;;;;23.05;44.86;101730.81;5017851;28;20118;-74
2022/07/06 06:54:31;;;;;;;5.03;1.20;;;;;;;23.39;43.39;101736.69;5029513;28;20103;-74
2022/07/06 06:56:58;;;;;;;5.25;1.10;;;;;;;23.34;43.07;101730.88;5043243;28;20456;-73
2022/07/06 06:59:24;;;;;;;6.20;1.30;;;;;;;22.83;43.79;101739.03;5048060;28;20111;-73
2022/07/06 07:01:50;;;;;;;4.32;1.20;;;;;;;23.35;43.56;101744.13;5029140;28;20046;-74
2022/07/06 07:04:18;;;;;;;6.57;1.13;;;;;;;23.41;43.08;101748.06;5027480;28;20063;-74
2022/07/06 07:06:44;;;;;;;4.93;1.05;;;;;;;23.36;42.46;101755.66;5017700;28;20061;-74
2022/07/06 07:09:11;;;;;;;13.00;1.35;;;;;;;23.48;44.28;101749.25;5029929;28;20049;-74
2022/07/06 07:11:37;;;;;;;2.28;0.90;;;;;;;24.08;42.42;101748.16;5027886;28;20077;-74
2022/07/06 07:14:04;;;;;;;5.32;0.88;;;;;;;24.59;40.20;101745.13;5017293;28;20440;-74
2022/07/06 07:16:30;;;;;;;4.30;1.10;;;;;;;23.49;40.57;101750.94;5028219;28;20045;-74
2022/07/06 07:18:56;;;;;;;6.20;1.17;;;;;;;22.58;43.18;101754.47;5025697;28;20096;-74
2022/07/06 07:21:24;;;;;;;5.07;1.10;;;;;;;21.86;44.35;101756.19;5025741;28;20041;-74
2022/07/06 07:23:50;;;;;;;2.30;1.00;;;;;;;21.57;45.71;101761.25;5028458;28;20056;-74
2022/07/06 07:26:17;;;;;;;3.95;1.20;;;;;;;21.15;45.44;101760.22;5027380;28;20042;-73
2022/07/06 07:28:43;;;;;;;5.43;1.20;;;;;;;21.23;45.66;101768.47;5028135;28;20453;-73
2022/07/06 07:31:10;;;;;;;4.68;0.85;;;;;;;22.22;43.69;101761.13;5027792;28;20045;-73
2022/07/06 07:33:36;;;;;;;9.02;1.60;;;;;;;23.41;43.99;101765.00;5026688;28;20555;-73
2022/07/06 07:36:03;;;;;;;3.10;1.08;;;;;;;23.79;40.95;101763.41;5021712;28;20302;-73
2022/07/06 07:38:30;;;;;;;5.75;1.35;;;;;;;24.13;39.34;101772.72;5028910;28;20442;-73
2022/07/06 07:40:57;;;;;;;3.80;0.90;;;;;;;23.79;39.13;101763.41;5027341;28;20390;-73
2022/07/06 07:43:23;;;;;;;5.75;1.17;;;;;;;23.13;40.55;101761.22;5026281;28;20426;-74
2022/07/06 07:45:50;;;;;;;4.72;0.93;;;;;;;23.01;40.87;101765.00;5029040;28;20468;-74
2022/07/06 07:48:16;;;;;;;7.90;1.15;;;;;;;22.24;42.84;101771.72;5028839;28;20037;-74
2022/07/06 07:50:42;;;;;;;3.90;0.85;;;;;;;21.92;43.32;101777.03;5027299;28;20054;-74
2022/07/06 07:53:09;;;;;;;4.07;1.13;;;;;;;22.22;44.23;101774.50;5027122;28;20057;-73
2022/07/06 07:55:36;;;;;;;2.55;0.93;;;;;;;23.19;43.17;101773.22;5027411;28;20072;-73
2022/07/06 07:58:04;;;;;;;6.70;1.30;;;;;;;24.04;43.44;101779.75;5026497;28;20065;-73
2022/07/06 08:00:30;;;;;;;8.70;1.05;;;;;;;25.23;41.42;101774.72;5026396;28;20065;-73
2022/07/06 08:02:56;;;;;;;1.42;0.60;;;;;;;24.60;35.55;101770.97;5026406;28;20099;-73
2022/07/06 08:05:23;;;;;;;2.17;0.80;;;;;;;24.05;37.08;101776.09;5026914;28;20122;-74
2022/07/06 08:07:49;;;;;;;4.82;0.88;;;;;;;23.79;38.87;101774.09;5027557;28;20076;-73
2022/07/06 08:10:16;;;;;;;3.47;1.15;;;;;;;23.41;39.46;101783.72;5026081;28;20073;-73
2022/07/06 08:12:43;;;;;;;5.32;1.20;;;;;;;22.71;40.25;101781.03;5026158;28;20068;-73
2022/07/06 08:15:10;;;;;;;7.00;1.20;;;;;;;22.32;40.63;101777.22;5013872;28;20068;-73
2022/07/06 08:17:39;;;;;;;3.83;1.02;;;;;;;21.80;41.30;101778.06;5027456;28;20188;-73
2022/07/06 08:20:06;;;;;;;4.70;1.02;;;;;;;21.40;41.38;101782.25;5027886;28;20053;-72
2022/07/06 08:22:32;;;;;;;5.18;0.88;;;;;;;21.42;42.02;101786.50;5025403;28;20084;-72
2022/07/06 08:24:59;;;;;;;4.03;0.90;;;;;;;21.17;43.10;101792.13;5021066;28;20041;-72
2022/07/06 08:27:25;;;;;;;5.53;1.20;;;;;;;21.36;42.10;101781.66;5020391;28;20115;-72
2022/07/06 08:29:53;;;;;;;4.50;1.30;;;;;;;21.23;41.93;101795.13;5024155;28;20052;-72
2022/07/06 08:32:20;;;;;;;3.92;0.90;;;;;;;21.15;41.89;101778.03;5025835;28;20045;-72
2022/07/06 08:34:46;;;;;;;9.25;1.42;;;;;;;21.31;42.32;101779.38;5022825;28;20049;-72
2022/07/06 08:37:13;;;;;;;5.30;1.42;;;;;;;21.74;42.62;101790.06;5021845;28;20045;-72
2022/07/06 08:39:39;;;;;;;4.47;1.00;;;;;;;22.08;41.21;101788.16;5026262;28;20053;-72
2022/07/06 08:42:08;;;;;;;5.60;1.40;;;;;;;21.93;42.27;101783.25;5020721;28;20096;-72
2022/07/06 08:44:37;;;;;;;3.60;1.08;;;;;;;21.62;41.75;101787.53;5015953;28;20069;-72
2022/07/06 08:47:06;;;;;;;5.38;1.40;;;;;;;21.61;41.26;101785.88;5025570;28;20642;-72
2022/07/06 08:49:34;;;;;;;7.47;1.30;;;;;;;21.58;39.92;101794.13;5026447;28;20075;-72
2022/07/06 08:52:01;;;;;;;2.28;0.75;;;;;;;21.94;40.93;101783.13;5027680;28;20116;-72
2022/07/06 08:54:27;;;;;;;3.33;0.90;;;;;;;22.11;41.43;101787.91;5025742;28;20393;-72
2022/07/06 08:56:54;;;;;;;1.98;0.90;;;;;;;22.41;40.46;101775.59;5025482;28;20038;-72
2022/07/06 08:59:20;;;;;;;2.97;0.88;;;;;;;21.83;40.04;101783.13;5026462;28;20115;-72
2022/07/06 09:01:48;;;;;;;3.42;0.90;;;;;;;21.76;40.10;101788.13;5028758;28;20045;-72
2022/07/06 09:04:17;;;;;;;2.08;0.80;;;;;;;22.01;39.83;101786.97;5026868;28;20480;-72
2022/07/06 09:06:47;;;;;;;4.05;1.02;;;;;;;22.93;37.43;101788.03;5015486;28;20046;-72
2022/07/06 09:09:18;;;;;;;2.80;0.77;;;;;;;23.39;35.70;101774.16;5005076;28;20181;-72
2022/07/06 09:11:44;;;;;;;4.70;0.93;;;;;;;22.96;36.10;101779.75;5010570;28;20045;-72
2022/07/06 09:14:11;;;;;;;6.38;1.00;;;;;;;22.59;36.90;101787.41;5020063;28;20122;-72
2022/07/06 09:16:37;;;;;;;2.63;0.63;;;;;;;22.84;37.15;101784.34;5028649;28;21975;-73
2022/07/06 09:19:04;;;;;;;2.13;0.75;;;;;;;22.53;37.92;101788.78;5025278;28;20057;-73
2022/07/06 09:21:36;;;;;;;3.83;0.63;;;;;;;22.37;36.71;101787.53;5027339;28;20391;-72
2022/07/06 09:24:06;;;;;;;4.15;0.90;;;;;;;21.81;37.93;101811.75;5027972;28;20035;-72
2022/07/06 09:26:33;;;;;;;4.25;0.73;;;;;;;21.40;38.12;101801.78;5025685;28;20053;-72
2022/07/06 09:29:00;;;;;;;3.28;1.10;;;;;;;21.17;39.14;101795.63;5024873;28;20095;-72
2022/07/06 09:31:27;;;;;;;3.40;1.20;;;;;;;21.47;38.99;101792.28;5025383;28;20194;-72
2022/07/06 09:33:57;;;;;;;3.75;0.70;;;;;;;21.47;39.15;101796.81;5021618;28;20045;-72
2022/07/06 09:36:43;;;;;;;1.42;0.60;;;;;;;21.83;39.03;101788.47;5014895;28;20185;-72
2022/07/06 09:39:21;;;;;;;2.70;0.93;;;;;;;22.35;40.00;101794.84;5004944;28;20045;-72
2022/07/06 09:41:48;;;;;;;1.88;0.68;;;;;;;22.17;38.75;101795.38;5010900;28;20049;-72
2022/07/06 09:44:21;;;;;;;2.33;0.60;;;;;;;22.15;37.79;101794.69;5018629;28;20108;-72
2022/07/06 09:46:48;;;;;;;2.38;0.65;;;;;;;21.97;38.72;101798.88;5004959;28;20066;-72
2022/07/06 09:49:17;;;;;;;5.22;1.00;;;;;;;21.97;38.86;101790.88;5012414;28;20045;-72
2022/07/06 09:51:45;;;;;;;4.20;0.98;;;;;;;21.98;38.16;101792.59;5024077;28;20042;-72
2022/07/06 09:54:11;;;;;;;4.70;0.70;;;;;;;22.12;40.50;101802.09;5006052;28;20088;-72
2022/07/06 09:56:39;;;;;;;3.63;0.88;;;;;;;21.96;39.15;101794.50;5026736;28;20053;-72
2022/07/06 09:59:12;;;;;;;1.48;0.50;;;;;;;22.03;39.05;101787.69;5024401;28;20115;-72
2022/07/06 10:01:40;;;;;;;3.70;0.63;;;;;;;22.09;38.87;101795.22;5025337;28;20049;-72
2022/07/06 10:04:07;;;;;;;3.28;0.52;;;;;;;22.20;37.94;101792.50;5024449;28;20061;-72
2022/07/06 10:06:34;;;;;;;6.47;0.73;;;;;;;22.44;38.09;101786.03;5017494;28;20053;-72
2022/07/06 10:09:02;;;;;;;5.90;0.60;;;;;;;22.36;38.19;101792.03;5024687;28;20081;-72
2022/07/06 10:11:30;;;;;;;2.85;0.73;;;;;;;22.22;36.79;101795.88;5024942;28;20037;-72
2022/07/06 10:13:58;;;;;;;1.85;0.50;;;;;;;22.08;37.10;101782.81;5021019;28;20053;-72
2022/07/06 10:16:25;;;;;;;4.60;1.52;;;;;;;22.95;38.05;101781.56;5005771;28;20108;-72
2022/07/06 10:18:54;;;;;;;2.80;0.60;;;;;;;23.56;35.90;101784.22;5024505;28;20139;-72
2022/07/06 10:21:22;;;;;;;2.95;0.60;;;;;;;23.88;35.90;101789.31;5027135;28;20045;-72
2022/07/06 10:23:49;;;;;;;2.53;0.57;;;;;;;24.04;34.65;101782.44;5023994;28;20049;-73
2022/07/06 10:26:18;;;;;;;3.00;0.60;;;;;;;23.92;33.00;101780.88;5022743;28;20045;-73
2022/07/06 10:28:46;;;;;;;5.72;1.08;;;;;;;23.66;35.76;101785.91;5006059;28;20046;-73
2022/07/06 10:31:14;;;;;;;3.97;0.82;;;;;;;23.94;37.77;101781.59;5015762;28;20041;-73
2022/07/06 10:33:42;;;;;;;2.30;0.60;;;;;;;23.85;35.93;101776.22;5025160;28;20096;-73
2022/07/06 10:36:09;;;;;;;6.15;0.68;;;;;;;23.61;35.62;101771.28;5018604;28;20045;-74
2022/07/06 10:38:36;;;;;;;5.15;0.65;;;;;;;23.70;35.52;101773.09;5006516;28;20041;-73
2022/07/06 10:41:03;;;;;;;4.47;0.80;;;;;;;24.23;35.73;101770.91;5016520;28;20037;-73
2022/07/06 10:43:35;;;;;;;4.90;0.75;;;;;;;24.45;36.01;101773.25;5023086;28;20456;-73
2022/07/06 10:46:07;;;;;;;3.70;0.70;;;;;;;24.44;35.48;101766.19;5006717;28;20041;-73
2022/07/06 10:48:35;;;;;;;3.65;0.80;;;;;;;24.52;33.68;101762.81;5005974;28;20057;-73
2022/07/06 10:51:04;;;;;;;2.17;0.57;;;;;;;24.38;35.30;101766.78;5014818;28;20092;-75
2022/07/06 10:53:33;;;;;;;2.28;0.60;;;;;;;24.70;34.58;101753.88;5024293;28;20080;-74
2022/07/06 10:56:01;;;;;;;1.30;0.60;;;;;;;24.48;33.80;101759.56;5025785;28;20508;-74
2022/07/06 10:58:50;;;;;;;4.20;0.85;;;;;;;25.09;35.16;101756.44;5025653;28;20091;-74
2022/07/06 11:01:18;;;;;;;1.15;0.50;;;;;;;25.55;35.20;101748.28;5029882;28;20053;-73
2022/07/06 11:03:45;;;;;;;3.30;0.80;;;;;;;25.30;33.97;101754.34;5028618;28;21030;-73
2022/07/06 11:06:14;;;;;;;6.70;0.88;;;;;;;24.74;34.51;101749.03;5021943;28;20108;-73
2022/07/06 11:08:49;;;;;;;2.17;0.80;;;;;;;24.34;34.72;101767.22;5008831;28;20062;-72
2022/07/06 11:11:17;;;;;;;3.53;0.75;;;;;;;24.27;33.80;101758.91;5035540;28;20064;-72
2022/07/06 11:13:50;;;;;;;4.45;0.93;;;;;;;24.20;32.65;101752.44;5031932;28;20048;-72
2022/07/06 11:16:18;;;;;;;5.15;0.60;;;;;;;23.88;32.01;101754.50;5025312;28;20544;-73
2022/07/06 11:18:48;;;;;;;4.05;0.57;;;;;;;23.68;35.10;101756.34;5023427;28;20281;-73
2022/07/06 11:21:20;;;;;;;4.65;0.90;;;;;;;23.84;31.59;101751.25;5022511;28;20045;-73
2022/07/06 11:23:48;;;;;;;3.88;0.82;;;;;;;24.66;34.07;101739.06;5029784;28;20176;-73
2022/07/06 11:26:15;;;;;;;3.47;0.65;;;;;;;25.22;35.87;101740.81;5027610;28;20060;-73
2022/07/06 11:28:42;;;;;;;6.68;0.70;;;;;;;25.41;31.34;101735.34;5026779;28;20049;-73
2022/07/06 11:31:11;;;;;;;2.38;0.70;;;;;;;26.17;31.36;101738.41;5028449;28;20045;-75